sensor_id;sensor_type;location;lat;lon;timestamp;temperature;humidity
48836;DHT22;62581;47.342;7.908;2024-03-06T00:00:02;5.40;99.90
48836;DHT22;62581;47.342;7.908;2024-03-06T00:02:31;5.40;99.90
48836;DHT22;62581;47.342;7.908;2024-03-06T00:04:58;5.40;99.90
48836;DHT22;62581;47.342;7.908;2024-03-06T00:07:25;5.40;99.90
48836;DHT22;62581;47.342;7.908;2024-03-06T00:09:52;5.40;99.90
48836;DHT22;62581;47.342;7.908;2024-03-06T00:12:19;5.50;99.90
48836;DHT22;62581;47.342;7.908;2024-03-06T00:14:46;5.50;99.90
48836;DHT22;62581;47.342;7.908;2024-03-06T00:17:13;5.40;99.90
48836;DHT22;62581;47.342;7.908;2024-03-06T00:19:42;5.40;99.90
48836;DHT22;62581;47.342;7.908;2024-03-06T00:22:10;5.40;99.90
48836;DHT22;62581;47.342;7.908;2024-03-06T00:24:36;5.40;99.90
48836;DHT22;62581;47.342;7.908;2024-03-06T00:27:03;5.40;99.90
48836;DHT22;62581;47.342;7.908;2024-03-06T00:29:31;5.40;99.90
48836;DHT22;62581;47.342;7.908;2024-03-06T00:31:58;5.50;99.90
48836;DHT22;62581;47.342;7.908;2024-03-06T00:34:25;5.50;99.90
48836;DHT22;62581;47.342;7.908;2024-03-06T00:36:54;5.50;99.90
48836;DHT22;62581;47.342;7.908;2024-03-06T00:39:21;5.50;99.90
48836;DHT22;62581;47.342;7.908;2024-03-06T00:41:48;5.50;99.90
48836;DHT22;62581;47.342;7.908;2024-03-06T00:44:15;5.50;99.90
48836;DHT22;62581;47.342;7.908;2024-03-06T00:46:42;5.50;99.90
48836;DHT22;62581;47.342;7.908;2024-03-06T00:49:09;5.50;99.90
48836;DHT22;62581;47.342;7.908;2024-03-06T00:51:36;5.50;99.90
48836;DHT22;62581;47.342;7.908;2024-03-06T00:54:05;5.50;99.90
48836;DHT22;62581;47.342;7.908;2024-03-06T00:56:32;5.50;99.90
48836;DHT22;62581;47.342;7.908;2024-03-06T00:58:59;5.50;99.90
48836;DHT22;62581;47.342;7.908;2024-03-06T01:01:26;5.50;99.90
48836;DHT22;62581;47.342;7.908;2024-03-06T01:03:53;5.50;99.90
48836;DHT22;62581;47.342;7.908;2024-03-06T01:06:20;5.50;99.90
48836;DHT22;62581;47.342;7.908;2024-03-06T01:08:47;5.50;99.90
48836;DHT22;62581;47.342;7.908;2024-03-06T01:11:16;5.50;99.90
48836;DHT22;62581;47.342;7.908;2024-03-06T01:13:43;5.50;99.90
48836;DHT22;62581;47.342;7.908;2024-03-06T01:16:09;5.50;99.90
48836;DHT22;62581;47.342;7.908;2024-03-06T01:18:36;5.50;99.90
48836;DHT22;62581;47.342;7.908;2024-03-06T01:21:04;5.50;99.90
48836;DHT22;62581;47.342;7.908;2024-03-06T01:23:30;5.50;99.90
48836;DHT22;62581;47.342;7.908;2024-03-06T01:25:58;5.50;99.90
48836;DHT22;62581;47.342;7.908;2024-03-06T01:28:26;5.50;99.90
48836;DHT22;62581;47.342;7.908;2024-03-06T01:30:54;5.50;99.90
48836;DHT22;62581;47.342;7.908;2024-03-06T01:33:21;5.50;99.90
48836;DHT22;62581;47.342;7.908;2024-03-06T01:35:48;5.50;99.90
48836;DHT22;62581;47.342;7.908;2024-03-06T01:38:16;5.50;99.90
48836;DHT22;62581;47.342;7.908;2024-03-06T01:40:43;5.50;99.90
48836;DHT22;62581;47.342;7.908;2024-03-06T01:43:19;5.50;99.90
48836;DHT22;62581;47.342;7.908;2024-03-06T01:45:49;5.50;99.90
48836;DHT22;62581;47.342;7.908;2024-03-06T01:48:16;5.50;99.90
48836;DHT22;62581;47.342;7.908;2024-03-06T01:50:44;5.60;99.90
48836;DHT22;62581;47.342;7.908;2024-03-06T01:53:13;5.50;99.90
48836;DHT22;62581;47.342;7.908;2024-03-06T01:55:41;5.50;99.90
48836;DHT22;62581;47.342;7.908;2024-03-06T01:58:08;5.50;99.90
48836;DHT22;62581;47.342;7.908;2024-03-06T02:00:36;5.50;99.90
48836;DHT22;62581;47.342;7.908;2024-03-06T02:03:05;5.50;99.90
48836;DHT22;62581;47.342;7.908;2024-03-06T02:05:32;5.50;99.90
48836;DHT22;62581;47.342;7.908;2024-03-06T02:07:59;5.50;99.90
48836;DHT22;62581;47.342;7.908;2024-03-06T02:10:26;5.50;99.90
48836;DHT22;62581;47.342;7.908;2024-03-06T02:12:54;5.50;99.90
48836;DHT22;62581;47.342;7.908;2024-03-06T02:15:21;5.50;99.90
48836;DHT22;62581;47.342;7.908;2024-03-06T02:17:48;5.40;99.90
48836;DHT22;62581;47.342;7.908;2024-03-06T02:20:16;5.40;99.90
48836;DHT22;62581;47.342;7.908;2024-03-06T02:22:45;5.50;99.90
48836;DHT22;62581;47.342;7.908;2024-03-06T02:25:12;5.50;99.90
48836;DHT22;62581;47.342;7.908;2024-03-06T02:27:40;5.50;99.90
48836;DHT22;62581;47.342;7.908;2024-03-06T02:30:08;5.50;99.90
48836;DHT22;62581;47.342;7.908;2024-03-06T02:32:35;5.50;99.90
48836;DHT22;62581;47.342;7.908;2024-03-06T02:35:02;5.50;99.90
48836;DHT22;62581;47.342;7.908;2024-03-06T02:37:33;5.50;99.90
48836;DHT22;62581;47.342;7.908;2024-03-06T02:40:02;5.50;99.90
48836;DHT22;62581;47.342;7.908;2024-03-06T02:42:32;5.50;99.90
48836;DHT22;62581;47.342;7.908;2024-03-06T02:44:59;5.40;99.90
48836;DHT22;62581;47.342;7.908;2024-03-06T02:47:26;5.40;99.90
48836;DHT22;62581;47.342;7.908;2024-03-06T02:49:53;5.40;99.90
48836;DHT22;62581;47.342;7.908;2024-03-06T02:52:20;5.40;99.90
48836;DHT22;62581;47.342;7.908;2024-03-06T02:54:50;5.40;99.90
48836;DHT22;62581;47.342;7.908;2024-03-06T02:57:18;5.40;99.90
48836;DHT22;62581;47.342;7.908;2024-03-06T02:59:45;5.40;99.90
48836;DHT22;62581;47.342;7.908;2024-03-06T03:02:12;5.40;99.90
48836;DHT22;62581;47.342;7.908;2024-03-06T03:04:39;5.40;99.90
48836;DHT22;62581;47.342;7.908;2024-03-06T03:07:06;5.50;99.90
48836;DHT22;62581;47.342;7.908;2024-03-06T03:09:33;5.40;99.90
48836;DHT22;62581;47.342;7.908;2024-03-06T03:12:01;5.50;99.90
48836;DHT22;62581;47.342;7.908;2024-03-06T03:14:30;5.50;99.90
48836;DHT22;62581;47.342;7.908;2024-03-06T03:16:57;5.40;99.90
48836;DHT22;62581;47.342;7.908;2024-03-06T03:19:24;5.40;99.90
48836;DHT22;62581;47.342;7.908;2024-03-06T03:21:51;5.40;99.90
48836;DHT22;62581;47.342;7.908;2024-03-06T03:24:18;5.40;99.90
48836;DHT22;62581;47.342;7.908;2024-03-06T03:26:47;5.40;99.90
48836;DHT22;62581;47.342;7.908;2024-03-06T03:29:14;5.40;99.90
48836;DHT22;62581;47.342;7.908;2024-03-06T03:31:42;5.50;99.90
48836;DHT22;62581;47.342;7.908;2024-03-06T03:34:09;5.50;99.90
48836;DHT22;62581;47.342;7.908;2024-03-06T03:36:40;5.40;99.90
48836;DHT22;62581;47.342;7.908;2024-03-06T03:39:07;5.50;99.90
48836;DHT22;62581;47.342;7.908;2024-03-06T03:41:43;5.50;99.90
48836;DHT22;62581;47.342;7.908;2024-03-06T03:44:11;5.40;99.90
48836;DHT22;62581;47.342;7.908;2024-03-06T03:46:38;5.40;99.90
48836;DHT22;62581;47.342;7.908;2024-03-06T03:49:06;5.50;99.90
48836;DHT22;62581;47.342;7.908;2024-03-06T03:51:34;5.50;99.90
48836;DHT22;62581;47.342;7.908;2024-03-06T03:54:01;5.50;99.90
48836;DHT22;62581;47.342;7.908;2024-03-06T03:56:28;5.50;99.90
48836;DHT22;62581;47.342;7.908;2024-03-06T03:58:56;5.50;99.90
48836;DHT22;62581;47.342;7.908;2024-03-06T04:01:23;5.50;99.90
48836;DHT22;62581;47.342;7.908;2024-03-06T04:03:49;5.50;99.90
48836;DHT22;62581;47.342;7.908;2024-03-06T04:06:18;5.50;99.90
48836;DHT22;62581;47.342;7.908;2024-03-06T04:08:45;5.50;99.90
48836;DHT22;62581;47.342;7.908;2024-03-06T04:11:12;5.50;99.90
48836;DHT22;62581;47.342;7.908;2024-03-06T04:13:39;5.50;99.90
48836;DHT22;62581;47.342;7.908;2024-03-06T04:16:06;5.60;99.90
48836;DHT22;62581;47.342;7.908;2024-03-06T04:18:33;5.60;99.90
48836;DHT22;62581;47.342;7.908;2024-03-06T04:21:03;5.50;99.90
48836;DHT22;62581;47.342;7.908;2024-03-06T04:23:32;5.50;99.90
48836;DHT22;62581;47.342;7.908;2024-03-06T04:26:00;5.60;99.90
48836;DHT22;62581;47.342;7.908;2024-03-06T04:28:27;5.60;99.90
48836;DHT22;62581;47.342;7.908;2024-03-06T04:30:54;5.60;99.90
48836;DHT22;62581;47.342;7.908;2024-03-06T04:33:21;5.70;99.90
48836;DHT22;62581;47.342;7.908;2024-03-06T04:35:48;5.70;99.90
48836;DHT22;62581;47.342;7.908;2024-03-06T04:38:15;5.70;99.90
48836;DHT22;62581;47.342;7.908;2024-03-06T04:40:43;5.70;99.90
48836;DHT22;62581;47.342;7.908;2024-03-06T04:43:10;5.80;99.90
48836;DHT22;62581;47.342;7.908;2024-03-06T04:45:37;5.80;99.90
48836;DHT22;62581;47.342;7.908;2024-03-06T04:48:05;5.80;99.90
48836;DHT22;62581;47.342;7.908;2024-03-06T04:50:32;5.90;99.90
48836;DHT22;62581;47.342;7.908;2024-03-06T04:52:59;5.90;99.90
48836;DHT22;62581;47.342;7.908;2024-03-06T04:55:26;5.90;99.90
48836;DHT22;62581;47.342;7.908;2024-03-06T04:57:55;5.90;99.90
48836;DHT22;62581;47.342;7.908;2024-03-06T05:00:22;5.90;99.90
48836;DHT22;62581;47.342;7.908;2024-03-06T05:02:49;5.80;99.90
48836;DHT22;62581;47.342;7.908;2024-03-06T05:05:16;5.80;99.90
48836;DHT22;62581;47.342;7.908;2024-03-06T05:07:43;5.80;99.90
48836;DHT22;62581;47.342;7.908;2024-03-06T05:10:11;5.90;99.90
48836;DHT22;62581;47.342;7.908;2024-03-06T05:12:38;5.90;99.90
48836;DHT22;62581;47.342;7.908;2024-03-06T05:15:07;5.80;99.90
48836;DHT22;62581;47.342;7.908;2024-03-06T05:17:34;5.80;99.90
48836;DHT22;62581;47.342;7.908;2024-03-06T05:20:01;5.80;99.90
48836;DHT22;62581;47.342;7.908;2024-03-06T05:22:29;5.80;99.90
48836;DHT22;62581;47.342;7.908;2024-03-06T05:24:56;5.70;99.90
48836;DHT22;62581;47.342;7.908;2024-03-06T05:27:23;5.70;99.90
48836;DHT22;62581;47.342;7.908;2024-03-06T05:29:51;5.70;99.90
48836;DHT22;62581;47.342;7.908;2024-03-06T05:32:19;5.70;99.90
48836;DHT22;62581;47.342;7.908;2024-03-06T05:34:46;5.70;99.90
48836;DHT22;62581;47.342;7.908;2024-03-06T05:37:13;5.70;99.90
48836;DHT22;62581;47.342;7.908;2024-03-06T05:39:40;5.70;99.90
48836;DHT22;62581;47.342;7.908;2024-03-06T05:42:08;5.70;99.90
48836;DHT22;62581;47.342;7.908;2024-03-06T05:44:35;5.70;99.90
48836;DHT22;62581;47.342;7.908;2024-03-06T05:47:02;5.70;99.90
48836;DHT22;62581;47.342;7.908;2024-03-06T05:49:31;5.70;99.90
48836;DHT22;62581;47.342;7.908;2024-03-06T05:51:58;5.70;99.90
48836;DHT22;62581;47.342;7.908;2024-03-06T05:54:25;5.70;99.90
48836;DHT22;62581;47.342;7.908;2024-03-06T05:56:53;5.70;99.90
48836;DHT22;62581;47.342;7.908;2024-03-06T05:59:20;5.60;99.90
48836;DHT22;62581;47.342;7.908;2024-03-06T06:01:49;5.60;99.90
48836;DHT22;62581;47.342;7.908;2024-03-06T06:04:16;5.60;99.90
48836;DHT22;62581;47.342;7.908;2024-03-06T06:06:45;5.60;99.90
48836;DHT22;62581;47.342;7.908;2024-03-06T06:09:12;5.60;99.90
48836;DHT22;62581;47.342;7.908;2024-03-06T06:11:41;5.60;99.90
48836;DHT22;62581;47.342;7.908;2024-03-06T06:14:09;5.70;99.90
48836;DHT22;62581;47.342;7.908;2024-03-06T06:16:37;5.60;99.90
48836;DHT22;62581;47.342;7.908;2024-03-06T06:19:04;5.60;99.90
48836;DHT22;62581;47.342;7.908;2024-03-06T06:21:32;5.60;99.90
48836;DHT22;62581;47.342;7.908;2024-03-06T06:24:02;5.60;99.90
48836;DHT22;62581;47.342;7.908;2024-03-06T06:26:30;5.60;99.90
48836;DHT22;62581;47.342;7.908;2024-03-06T06:28:58;5.60;99.90
48836;DHT22;62581;47.342;7.908;2024-03-06T06:31:25;5.70;99.90
48836;DHT22;62581;47.342;7.908;2024-03-06T06:33:53;5.70;99.90
48836;DHT22;62581;47.342;7.908;2024-03-06T06:36:20;5.70;99.90
48836;DHT22;62581;47.342;7.908;2024-03-06T06:38:47;5.70;99.90
48836;DHT22;62581;47.342;7.908;2024-03-06T06:41:16;5.80;99.90
48836;DHT22;62581;47.342;7.908;2024-03-06T06:43:44;5.80;99.90
48836;DHT22;62581;47.342;7.908;2024-03-06T06:46:11;5.80;99.90
48836;DHT22;62581;47.342;7.908;2024-03-06T06:48:38;5.80;99.90
48836;DHT22;62581;47.342;7.908;2024-03-06T06:51:05;5.80;99.90
48836;DHT22;62581;47.342;7.908;2024-03-06T06:53:33;5.80;99.90
48836;DHT22;62581;47.342;7.908;2024-03-06T06:55:59;5.80;99.90
48836;DHT22;62581;47.342;7.908;2024-03-06T06:58:28;5.80;99.90
48836;DHT22;62581;47.342;7.908;2024-03-06T07:00:55;5.80;99.90
48836;DHT22;62581;47.342;7.908;2024-03-06T07:03:22;5.90;99.90
48836;DHT22;62581;47.342;7.908;2024-03-06T07:05:55;5.90;99.90
48836;DHT22;62581;47.342;7.908;2024-03-06T07:08:22;5.90;99.90
48836;DHT22;62581;47.342;7.908;2024-03-06T07:10:49;5.90;99.90
48836;DHT22;62581;47.342;7.908;2024-03-06T07:13:16;6.00;99.90
48836;DHT22;62581;47.342;7.908;2024-03-06T07:15:45;6.10;99.90
48836;DHT22;62581;47.342;7.908;2024-03-06T07:18:12;6.10;99.90
48836;DHT22;62581;47.342;7.908;2024-03-06T07:20:40;6.10;99.90
48836;DHT22;62581;47.342;7.908;2024-03-06T07:23:07;6.10;99.90
48836;DHT22;62581;47.342;7.908;2024-03-06T07:25:34;6.10;99.90
48836;DHT22;62581;47.342;7.908;2024-03-06T07:28:01;6.10;99.90
48836;DHT22;62581;47.342;7.908;2024-03-06T07:30:29;6.20;99.90
48836;DHT22;62581;47.342;7.908;2024-03-06T07:32:58;6.10;99.90
48836;DHT22;62581;47.342;7.908;2024-03-06T07:35:24;6.00;99.90
48836;DHT22;62581;47.342;7.908;2024-03-06T07:37:51;6.10;99.90
48836;DHT22;62581;47.342;7.908;2024-03-06T07:40:18;6.10;99.90
48836;DHT22;62581;47.342;7.908;2024-03-06T07:42:45;6.10;99.90
48836;DHT22;62581;47.342;7.908;2024-03-06T07:45:12;6.20;99.90
48836;DHT22;62581;47.342;7.908;2024-03-06T07:47:40;6.20;99.90
48836;DHT22;62581;47.342;7.908;2024-03-06T07:50:09;6.20;99.90
48836;DHT22;62581;47.342;7.908;2024-03-06T07:52:37;6.30;99.90
48836;DHT22;62581;47.342;7.908;2024-03-06T07:55:04;6.30;99.90
48836;DHT22;62581;47.342;7.908;2024-03-06T07:57:32;6.30;99.90
48836;DHT22;62581;47.342;7.908;2024-03-06T07:59:59;6.30;99.90
48836;DHT22;62581;47.342;7.908;2024-03-06T08:02:26;6.30;99.90
48836;DHT22;62581;47.342;7.908;2024-03-06T08:04:53;6.20;99.90
48836;DHT22;62581;47.342;7.908;2024-03-06T08:07:22;6.20;99.90
48836;DHT22;62581;47.342;7.908;2024-03-06T08:09:49;6.30;99.90
48836;DHT22;62581;47.342;7.908;2024-03-06T08:12:16;6.20;99.90
48836;DHT22;62581;47.342;7.908;2024-03-06T08:14:43;6.20;99.90
48836;DHT22;62581;47.342;7.908;2024-03-06T08:17:10;6.20;99.90
48836;DHT22;62581;47.342;7.908;2024-03-06T08:19:37;6.30;99.90
48836;DHT22;62581;47.342;7.908;2024-03-06T08:22:04;6.30;99.90
48836;DHT22;62581;47.342;7.908;2024-03-06T08:24:33;6.40;99.90
48836;DHT22;62581;47.342;7.908;2024-03-06T08:27:00;6.40;99.90
48836;DHT22;62581;47.342;7.908;2024-03-06T08:29:27;6.40;99.90
48836;DHT22;62581;47.342;7.908;2024-03-06T08:31:54;6.30;99.90
48836;DHT22;62581;47.342;7.908;2024-03-06T08:34:23;6.30;99.90
48836;DHT22;62581;47.342;7.908;2024-03-06T08:36:50;6.30;99.90
48836;DHT22;62581;47.342;7.908;2024-03-06T08:39:17;6.40;99.90
48836;DHT22;62581;47.342;7.908;2024-03-06T08:41:45;6.30;99.90
48836;DHT22;62581;47.342;7.908;2024-03-06T08:44:12;6.30;99.90
48836;DHT22;62581;47.342;7.908;2024-03-06T08:46:39;6.30;99.90
48836;DHT22;62581;47.342;7.908;2024-03-06T08:49:07;6.30;99.90
48836;DHT22;62581;47.342;7.908;2024-03-06T08:51:34;6.40;99.90
48836;DHT22;62581;47.342;7.908;2024-03-06T08:54:01;6.40;99.90
48836;DHT22;62581;47.342;7.908;2024-03-06T08:56:28;6.40;99.90
48836;DHT22;62581;47.342;7.908;2024-03-06T08:58:57;6.40;99.90
48836;DHT22;62581;47.342;7.908;2024-03-06T09:01:23;6.40;99.90
48836;DHT22;62581;47.342;7.908;2024-03-06T09:03:51;6.50;99.90
48836;DHT22;62581;47.342;7.908;2024-03-06T09:06:17;6.60;99.90
48836;DHT22;62581;47.342;7.908;2024-03-06T09:08:44;6.60;99.90
48836;DHT22;62581;47.342;7.908;2024-03-06T09:11:12;6.60;99.90
48836;DHT22;62581;47.342;7.908;2024-03-06T09:13:39;6.70;99.90
48836;DHT22;62581;47.342;7.908;2024-03-06T09:16:08;6.70;99.90
48836;DHT22;62581;47.342;7.908;2024-03-06T09:18:35;6.80;99.90
48836;DHT22;62581;47.342;7.908;2024-03-06T09:21:02;6.80;99.90
48836;DHT22;62581;47.342;7.908;2024-03-06T09:23:29;6.80;99.90
48836;DHT22;62581;47.342;7.908;2024-03-06T09:25:58;6.90;99.90
48836;DHT22;62581;47.342;7.908;2024-03-06T09:28:25;6.80;99.90
48836;DHT22;62581;47.342;7.908;2024-03-06T09:30:52;6.90;99.90
48836;DHT22;62581;47.342;7.908;2024-03-06T09:33:20;7.00;99.90
48836;DHT22;62581;47.342;7.908;2024-03-06T09:35:48;7.00;99.90
48836;DHT22;62581;47.342;7.908;2024-03-06T09:38:15;7.10;99.90
48836;DHT22;62581;47.342;7.908;2024-03-06T09:40:42;7.10;99.90
48836;DHT22;62581;47.342;7.908;2024-03-06T09:43:09;7.20;99.90
48836;DHT22;62581;47.342;7.908;2024-03-06T09:45:36;7.20;99.90
48836;DHT22;62581;47.342;7.908;2024-03-06T09:48:04;7.20;99.90
48836;DHT22;62581;47.342;7.908;2024-03-06T09:50:35;7.20;99.90
48836;DHT22;62581;47.342;7.908;2024-03-06T09:53:08;7.20;99.90
48836;DHT22;62581;47.342;7.908;2024-03-06T09:55:36;7.20;99.90
48836;DHT22;62581;47.342;7.908;2024-03-06T09:58:04;7.30;99.90
48836;DHT22;62581;47.342;7.908;2024-03-06T10:00:32;7.30;99.90
48836;DHT22;62581;47.342;7.908;2024-03-06T10:03:01;7.30;99.90
48836;DHT22;62581;47.342;7.908;2024-03-06T10:05:32;7.40;99.90
48836;DHT22;62581;47.342;7.908;2024-03-06T10:08:01;7.50;99.90
48836;DHT22;62581;47.342;7.908;2024-03-06T10:10:29;7.60;99.90
48836;DHT22;62581;47.342;7.908;2024-03-06T10:12:56;7.60;99.90
48836;DHT22;62581;47.342;7.908;2024-03-06T10:15:25;7.80;99.90
48836;DHT22;62581;47.342;7.908;2024-03-06T10:18:10;7.90;99.90
48836;DHT22;62581;47.342;7.908;2024-03-06T10:20:39;7.90;99.90
48836;DHT22;62581;47.342;7.908;2024-03-06T10:23:09;8.00;99.90
48836;DHT22;62581;47.342;7.908;2024-03-06T10:25:36;8.00;99.90
48836;DHT22;62581;47.342;7.908;2024-03-06T10:28:05;8.10;99.90
48836;DHT22;62581;47.342;7.908;2024-03-06T10:30:32;8.40;99.90
48836;DHT22;62581;47.342;7.908;2024-03-06T10:33:01;8.50;99.90
48836;DHT22;62581;47.342;7.908;2024-03-06T10:35:28;8.60;99.90
48836;DHT22;62581;47.342;7.908;2024-03-06T10:38:00;8.50;99.90
48836;DHT22;62581;47.342;7.908;2024-03-06T10:40:28;8.60;99.90
48836;DHT22;62581;47.342;7.908;2024-03-06T10:42:57;8.70;99.90
48836;DHT22;62581;47.342;7.908;2024-03-06T10:45:32;8.80;99.90
48836;DHT22;62581;47.342;7.908;2024-03-06T10:48:02;8.80;99.90
48836;DHT22;62581;47.342;7.908;2024-03-06T10:50:30;8.90;99.90
48836;DHT22;62581;47.342;7.908;2024-03-06T10:53:00;8.90;99.90
48836;DHT22;62581;47.342;7.908;2024-03-06T10:55:28;8.90;99.90
48836;DHT22;62581;47.342;7.908;2024-03-06T10:58:00;8.90;99.90
48836;DHT22;62581;47.342;7.908;2024-03-06T11:00:27;8.80;99.90
48836;DHT22;62581;47.342;7.908;2024-03-06T11:02:56;8.80;99.90
48836;DHT22;62581;47.342;7.908;2024-03-06T11:05:24;8.80;99.90
48836;DHT22;62581;47.342;7.908;2024-03-06T11:07:51;8.90;99.90
48836;DHT22;62581;47.342;7.908;2024-03-06T11:10:31;8.80;99.90
48836;DHT22;62581;47.342;7.908;2024-03-06T11:12:59;9.00;99.90
48836;DHT22;62581;47.342;7.908;2024-03-06T11:15:27;9.00;99.90
48836;DHT22;62581;47.342;7.908;2024-03-06T11:17:54;9.00;99.90
48836;DHT22;62581;47.342;7.908;2024-03-06T11:20:21;9.00;99.90
48836;DHT22;62581;47.342;7.908;2024-03-06T11:23:03;9.00;99.90
48836;DHT22;62581;47.342;7.908;2024-03-06T11:26:00;9.00;99.90
48836;DHT22;62581;47.342;7.908;2024-03-06T11:28:29;9.10;99.90
48836;DHT22;62581;47.342;7.908;2024-03-06T11:30:57;9.20;99.90
48836;DHT22;62581;47.342;7.908;2024-03-06T11:33:28;9.30;99.90
48836;DHT22;62581;47.342;7.908;2024-03-06T11:36:15;9.30;99.90
48836;DHT22;62581;47.342;7.908;2024-03-06T11:38:47;9.30;99.90
48836;DHT22;62581;47.342;7.908;2024-03-06T11:41:15;9.20;99.90
48836;DHT22;62581;47.342;7.908;2024-03-06T11:43:43;9.10;99.90
48836;DHT22;62581;47.342;7.908;2024-03-06T11:46:10;9.00;99.90
48836;DHT22;62581;47.342;7.908;2024-03-06T11:48:37;8.90;99.90
48836;DHT22;62581;47.342;7.908;2024-03-06T11:51:04;8.80;99.90
48836;DHT22;62581;47.342;7.908;2024-03-06T11:53:33;8.80;99.90
48836;DHT22;62581;47.342;7.908;2024-03-06T11:56:00;8.80;99.90
48836;DHT22;62581;47.342;7.908;2024-03-06T11:58:29;8.70;99.90
48836;DHT22;62581;47.342;7.908;2024-03-06T12:00:56;8.80;99.90
48836;DHT22;62581;47.342;7.908;2024-03-06T12:03:23;8.70;99.90
48836;DHT22;62581;47.342;7.908;2024-03-06T12:05:50;8.70;99.90
48836;DHT22;62581;47.342;7.908;2024-03-06T12:08:18;8.80;99.90
48836;DHT22;62581;47.342;7.908;2024-03-06T12:10:46;8.80;99.90
48836;DHT22;62581;47.342;7.908;2024-03-06T12:13:13;8.80;99.90
48836;DHT22;62581;47.342;7.908;2024-03-06T12:15:44;8.70;99.90
48836;DHT22;62581;47.342;7.908;2024-03-06T12:18:11;8.80;99.90
48836;DHT22;62581;47.342;7.908;2024-03-06T12:20:41;8.80;99.90
48836;DHT22;62581;47.342;7.908;2024-03-06T12:23:19;9.00;99.90
48836;DHT22;62581;47.342;7.908;2024-03-06T12:25:47;9.10;99.90
48836;DHT22;62581;47.342;7.908;2024-03-06T12:28:14;9.30;99.90
48836;DHT22;62581;47.342;7.908;2024-03-06T12:30:44;9.50;99.90
48836;DHT22;62581;47.342;7.908;2024-03-06T12:33:16;9.70;99.90
48836;DHT22;62581;47.342;7.908;2024-03-06T12:35:43;9.90;99.90
48836;DHT22;62581;47.342;7.908;2024-03-06T12:38:14;10.10;99.90
48836;DHT22;62581;47.342;7.908;2024-03-06T12:40:41;10.20;99.90
48836;DHT22;62581;47.342;7.908;2024-03-06T12:43:09;10.30;99.90
48836;DHT22;62581;47.342;7.908;2024-03-06T12:45:36;10.50;99.90
48836;DHT22;62581;47.342;7.908;2024-03-06T12:48:05;10.60;99.90
48836;DHT22;62581;47.342;7.908;2024-03-06T12:50:32;10.50;99.90
48836;DHT22;62581;47.342;7.908;2024-03-06T12:52:59;10.50;99.90
48836;DHT22;62581;47.342;7.908;2024-03-06T12:55:26;10.50;99.90
48836;DHT22;62581;47.342;7.908;2024-03-06T12:57:53;10.50;99.90
48836;DHT22;62581;47.342;7.908;2024-03-06T13:00:20;10.40;99.90
48836;DHT22;62581;47.342;7.908;2024-03-06T13:02:49;10.30;99.90
48836;DHT22;62581;47.342;7.908;2024-03-06T13:05:17;10.40;99.90
48836;DHT22;62581;47.342;7.908;2024-03-06T13:07:45;10.30;99.90
48836;DHT22;62581;47.342;7.908;2024-03-06T13:10:12;10.10;99.90
48836;DHT22;62581;47.342;7.908;2024-03-06T13:12:39;9.90;99.90
48836;DHT22;62581;47.342;7.908;2024-03-06T13:15:06;9.80;99.90
48836;DHT22;62581;47.342;7.908;2024-03-06T13:17:34;9.60;99.90
48836;DHT22;62581;47.342;7.908;2024-03-06T13:20:01;9.60;99.90
48836;DHT22;62581;47.342;7.908;2024-03-06T13:22:29;9.50;99.90
48836;DHT22;62581;47.342;7.908;2024-03-06T13:24:57;9.50;99.90
48836;DHT22;62581;47.342;7.908;2024-03-06T13:27:24;9.40;99.90
48836;DHT22;62581;47.342;7.908;2024-03-06T13:29:52;9.40;99.90
48836;DHT22;62581;47.342;7.908;2024-03-06T13:32:19;9.20;99.90
48836;DHT22;62581;47.342;7.908;2024-03-06T13:34:46;9.20;99.90
48836;DHT22;62581;47.342;7.908;2024-03-06T13:37:13;9.20;99.90
48836;DHT22;62581;47.342;7.908;2024-03-06T13:39:40;9.10;99.90
48836;DHT22;62581;47.342;7.908;2024-03-06T13:42:07;9.10;99.90
48836;DHT22;62581;47.342;7.908;2024-03-06T13:44:35;9.00;99.90
48836;DHT22;62581;47.342;7.908;2024-03-06T13:47:02;9.00;99.90
48836;DHT22;62581;47.342;7.908;2024-03-06T13:49:37;9.00;99.90
48836;DHT22;62581;47.342;7.908;2024-03-06T13:52:04;9.00;99.90
48836;DHT22;62581;47.342;7.908;2024-03-06T13:54:32;8.90;99.90
48836;DHT22;62581;47.342;7.908;2024-03-06T13:57:01;9.00;99.90
48836;DHT22;62581;47.342;7.908;2024-03-06T13:59:29;9.00;99.90
48836;DHT22;62581;47.342;7.908;2024-03-06T14:01:56;9.10;99.90
48836;DHT22;62581;47.342;7.908;2024-03-06T14:04:24;9.10;99.90
48836;DHT22;62581;47.342;7.908;2024-03-06T14:06:51;9.20;99.90
48836;DHT22;62581;47.342;7.908;2024-03-06T14:09:18;9.20;99.90
48836;DHT22;62581;47.342;7.908;2024-03-06T14:11:45;9.10;99.90
48836;DHT22;62581;47.342;7.908;2024-03-06T14:14:13;9.00;99.90
48836;DHT22;62581;47.342;7.908;2024-03-06T14:16:40;8.90;99.90
48836;DHT22;62581;47.342;7.908;2024-03-06T14:19:08;8.60;99.90
48836;DHT22;62581;47.342;7.908;2024-03-06T14:21:35;8.50;99.90
48836;DHT22;62581;47.342;7.908;2024-03-06T14:24:02;8.40;99.90
48836;DHT22;62581;47.342;7.908;2024-03-06T14:26:31;8.40;99.90
48836;DHT22;62581;47.342;7.908;2024-03-06T14:28:58;8.20;99.90
48836;DHT22;62581;47.342;7.908;2024-03-06T14:31:26;8.10;99.90
48836;DHT22;62581;47.342;7.908;2024-03-06T14:33:54;8.10;99.90
48836;DHT22;62581;47.342;7.908;2024-03-06T14:36:21;8.30;99.90
48836;DHT22;62581;47.342;7.908;2024-03-06T14:38:50;8.30;99.90
48836;DHT22;62581;47.342;7.908;2024-03-06T14:41:18;8.50;99.90
48836;DHT22;62581;47.342;7.908;2024-03-06T14:43:45;8.50;99.90
48836;DHT22;62581;47.342;7.908;2024-03-06T14:46:12;8.60;99.90
48836;DHT22;62581;47.342;7.908;2024-03-06T14:48:41;8.60;99.90
48836;DHT22;62581;47.342;7.908;2024-03-06T14:51:08;8.70;99.90
48836;DHT22;62581;47.342;7.908;2024-03-06T14:53:35;8.70;99.90
48836;DHT22;62581;47.342;7.908;2024-03-06T14:56:03;8.70;99.90
48836;DHT22;62581;47.342;7.908;2024-03-06T14:58:30;8.60;99.90
48836;DHT22;62581;47.342;7.908;2024-03-06T15:00:57;8.60;99.90
48836;DHT22;62581;47.342;7.908;2024-03-06T15:03:24;8.50;99.90
48836;DHT22;62581;47.342;7.908;2024-03-06T15:05:52;8.50;99.90
48836;DHT22;62581;47.342;7.908;2024-03-06T15:08:19;8.40;99.90
48836;DHT22;62581;47.342;7.908;2024-03-06T15:10:46;8.40;99.90
48836;DHT22;62581;47.342;7.908;2024-03-06T15:13:13;8.40;99.90
48836;DHT22;62581;47.342;7.908;2024-03-06T15:15:42;8.30;99.90
48836;DHT22;62581;47.342;7.908;2024-03-06T15:18:09;8.20;99.90
48836;DHT22;62581;47.342;7.908;2024-03-06T15:20:36;8.20;99.90
48836;DHT22;62581;47.342;7.908;2024-03-06T15:23:04;8.20;99.90
48836;DHT22;62581;47.342;7.908;2024-03-06T15:25:32;8.10;99.90
48836;DHT22;62581;47.342;7.908;2024-03-06T15:27:58;8.10;99.90
48836;DHT22;62581;47.342;7.908;2024-03-06T15:30:26;8.00;99.90
48836;DHT22;62581;47.342;7.908;2024-03-06T15:32:54;7.90;99.90
48836;DHT22;62581;47.342;7.908;2024-03-06T15:35:21;7.80;99.90
48836;DHT22;62581;47.342;7.908;2024-03-06T15:37:48;7.80;99.90
48836;DHT22;62581;47.342;7.908;2024-03-06T15:40:17;7.80;99.90
48836;DHT22;62581;47.342;7.908;2024-03-06T15:42:44;7.70;99.90
48836;DHT22;62581;47.342;7.908;2024-03-06T15:45:12;7.70;99.90
48836;DHT22;62581;47.342;7.908;2024-03-06T15:47:39;7.60;99.90